createdAt,value
2018-03-07T00:00:25.545Z,2.20
2018-03-07T00:02:54.142Z,2.20
2018-03-07T00:05:22.796Z,2.20
2018-03-07T00:07:51.365Z,2.30
2018-03-07T00:10:20.713Z,2.20
2018-03-07T00:12:49.291Z,2.20
2018-03-07T00:15:17.924Z,2.30
2018-03-07T00:17:46.494Z,2.30
2018-03-07T00:20:15.107Z,2.30
2018-03-07T00:22:44.484Z,2.40
2018-03-07T00:25:13.060Z,2.40
2018-03-07T00:27:41.630Z,2.40
2018-03-07T00:30:10.199Z,2.40
2018-03-07T00:32:38.809Z,2.40
2018-03-07T00:35:07.565Z,2.40
2018-03-07T00:37:36.134Z,2.40
2018-03-07T00:40:05.506Z,2.40
2018-03-07T00:42:34.091Z,2.40
2018-03-07T00:45:02.644Z,2.40
2018-03-07T00:47:31.206Z,2.50
2018-03-07T00:49:59.809Z,2.40
2018-03-07T00:52:28.400Z,2.40
2018-03-07T00:54:56.997Z,2.40
2018-03-07T00:57:25.564Z,2.40
2018-03-07T00:59:54.132Z,2.30
2018-03-07T01:02:22.719Z,2.20
2018-03-07T01:04:51.272Z,2.20
2018-03-07T01:07:19.835Z,2.20
2018-03-07T01:09:48.410Z,2.30
2018-03-07T01:12:16.988Z,2.30
2018-03-07T01:14:45.561Z,2.30
2018-03-07T01:17:14.147Z,2.30
2018-03-07T01:19:42.684Z,2.30
2018-03-07T01:22:11.212Z,2.30
2018-03-07T01:24:39.807Z,2.30
2018-03-07T01:27:08.407Z,2.30
2018-03-07T01:29:36.987Z,2.30
2018-03-07T01:32:05.593Z,2.30
2018-03-07T01:34:34.169Z,2.40
2018-03-07T01:37:02.786Z,2.30
2018-03-07T01:39:31.359Z,2.40
2018-03-07T01:41:59.954Z,2.20
2018-03-07T01:44:28.557Z,2.20
2018-03-07T01:46:57.132Z,2.30
2018-03-07T01:49:25.732Z,2.30
2018-03-07T01:52:01.811Z,2.30
2018-03-07T01:54:30.391Z,2.30
2018-03-07T01:56:59.741Z,2.30
2018-03-07T01:59:28.338Z,2.30
2018-03-07T02:01:56.927Z,2.30
2018-03-07T02:04:25.491Z,2.30
2018-03-07T02:06:54.066Z,2.20
2018-03-07T02:09:22.676Z,2.30
2018-03-07T02:11:51.251Z,2.20
2018-03-07T02:14:19.828Z,2.10
2018-03-07T02:16:48.398Z,2.10
2018-03-07T02:19:16.755Z,2.20
2018-03-07T02:21:46.119Z,2.30
2018-03-07T02:24:14.684Z,2.30
2018-03-07T02:26:43.274Z,2.40
2018-03-07T02:29:11.867Z,2.40
2018-03-07T02:31:40.473Z,2.40
2018-03-07T02:34:09.020Z,2.30
2018-03-07T02:36:37.566Z,2.30
2018-03-07T02:39:05.844Z,2.30
2018-03-07T02:41:34.414Z,2.30
2018-03-07T02:44:02.948Z,2.20
2018-03-07T02:46:31.498Z,2.30
2018-03-07T02:49:00.024Z,2.30
2018-03-07T02:51:28.633Z,2.30
2018-03-07T02:53:57.196Z,2.30
2018-03-07T02:56:25.969Z,2.30
2018-03-07T02:58:55.341Z,2.40
2018-03-07T03:01:23.901Z,2.40
2018-03-07T03:03:52.523Z,2.50
2018-03-07T03:06:21.088Z,2.50
2018-03-07T03:08:49.687Z,2.60
2018-03-07T03:11:18.287Z,2.60
2018-03-07T03:13:46.849Z,2.60
2018-03-07T03:16:15.415Z,2.60
2018-03-07T03:18:43.946Z,2.70
2018-03-07T03:21:12.536Z,2.60
2018-03-07T03:23:41.115Z,2.60
2018-03-07T03:26:09.660Z,2.60
2018-03-07T03:28:38.256Z,2.70
2018-03-07T03:31:06.815Z,2.70
2018-03-07T03:33:35.400Z,2.70
2018-03-07T03:36:03.991Z,2.70
2018-03-07T03:38:32.571Z,2.70
2018-03-07T03:41:01.152Z,2.80
2018-03-07T03:43:29.728Z,2.80
2018-03-07T03:45:58.339Z,2.80
2018-03-07T03:48:26.936Z,2.80
2018-03-07T03:50:55.487Z,2.80
2018-03-07T03:53:24.057Z,2.80
2018-03-07T03:55:52.619Z,2.90
2018-03-07T03:58:21.210Z,2.90
2018-03-07T04:00:49.822Z,2.90
2018-03-07T04:03:18.407Z,2.90
2018-03-07T04:05:47.837Z,2.90
2018-03-07T04:08:16.394Z,2.90
2018-03-07T04:10:44.984Z,2.90
2018-03-07T04:13:14.348Z,3.00
2018-03-07T04:15:42.931Z,2.90
2018-03-07T04:18:11.496Z,2.90
2018-03-07T04:20:40.035Z,2.90
2018-03-07T04:23:08.634Z,2.90
2018-03-07T04:25:37.975Z,2.80
2018-03-07T04:28:06.531Z,2.80
2018-03-07T04:30:35.112Z,2.80
2018-03-07T04:33:04.410Z,2.70
2018-03-07T04:35:33.751Z,2.70
2018-03-07T04:38:03.101Z,2.70
2018-03-07T04:40:31.961Z,2.70
2018-03-07T04:43:00.558Z,2.70
2018-03-07T04:45:29.140Z,2.70
2018-03-07T04:47:57.716Z,2.80
2018-03-07T04:50:26.306Z,2.80
2018-03-07T04:52:54.942Z,2.90
2018-03-07T04:55:23.709Z,2.90
2018-03-07T04:57:52.281Z,2.90
2018-03-07T05:00:20.881Z,3.00
2018-03-07T05:02:49.487Z,3.10
2018-03-07T05:05:18.204Z,3.20
2018-03-07T05:07:46.805Z,3.30
2018-03-07T05:10:15.327Z,3.60
2018-03-07T05:12:43.904Z,3.80
2018-03-07T05:15:12.470Z,4.00
2018-03-07T05:17:40.843Z,4.20
2018-03-07T05:20:09.418Z,4.30
2018-03-07T05:22:37.972Z,4.40
2018-03-07T05:25:07.330Z,4.50
2018-03-07T05:27:35.921Z,4.40
2018-03-07T05:30:04.223Z,4.50
2018-03-07T05:32:32.791Z,4.60
2018-03-07T05:35:01.308Z,4.60
2018-03-07T05:37:29.874Z,4.50
2018-03-07T05:39:58.481Z,4.40
2018-03-07T05:42:27.003Z,4.30
2018-03-07T05:44:55.587Z,4.30
2018-03-07T05:47:24.144Z,4.30
2018-03-07T05:49:53.500Z,4.20
2018-03-07T05:52:22.106Z,4.20
2018-03-07T05:54:50.672Z,4.10
2018-03-07T05:57:19.245Z,4.10
2018-03-07T05:59:47.784Z,4.10
2018-03-07T06:02:16.391Z,4.00
2018-03-07T06:04:44.994Z,4.00
2018-03-07T06:07:13.587Z,3.90
2018-03-07T06:09:42.170Z,3.80
2018-03-07T06:12:10.808Z,3.70
2018-03-07T06:14:39.382Z,3.60
2018-03-07T06:17:07.979Z,3.70
2018-03-07T06:19:36.605Z,3.60
2018-03-07T06:22:05.179Z,3.70
2018-03-07T06:24:34.520Z,4.00
2018-03-07T06:27:03.075Z,4.00
2018-03-07T06:29:31.640Z,4.10
2018-03-07T06:32:01.011Z,4.30
2018-03-07T06:34:29.597Z,4.30
2018-03-07T06:36:58.208Z,4.30
2018-03-07T06:39:26.790Z,4.30
2018-03-07T06:41:55.381Z,4.30
2018-03-07T06:44:23.957Z,4.20
2018-03-07T06:46:52.541Z,4.20
2018-03-07T06:49:21.128Z,4.20
2018-03-07T06:51:49.709Z,4.10
2018-03-07T06:54:18.318Z,4.00
2018-03-07T06:56:46.905Z,4.00
2018-03-07T06:59:15.457Z,4.00
2018-03-07T07:01:44.085Z,4.00
2018-03-07T07:04:13.428Z,4.00
2018-03-07T07:06:42.057Z,4.00
2018-03-07T07:09:10.622Z,4.00
2018-03-07T07:11:39.151Z,4.00
2018-03-07T07:14:07.735Z,3.90
2018-03-07T07:16:37.072Z,4.10
2018-03-07T07:19:05.670Z,4.00
2018-03-07T07:21:34.281Z,4.10
2018-03-07T07:24:02.857Z,4.20
2018-03-07T07:26:31.470Z,4.20
2018-03-07T07:29:01.044Z,4.30
2018-03-07T07:31:29.684Z,4.40
2018-03-07T07:33:58.298Z,4.50
2018-03-07T07:36:26.918Z,4.60
2018-03-07T07:38:55.542Z,4.70
2018-03-07T07:41:23.830Z,4.80
2018-03-07T07:43:52.407Z,4.80
2018-03-07T07:46:21.740Z,5.20
2018-03-07T07:48:50.194Z,5.20
2018-03-07T07:51:19.370Z,5.60
2018-03-07T07:53:47.938Z,5.60
2018-03-07T07:56:17.284Z,5.80
2018-03-07T07:58:46.610Z,6.00
2018-03-07T08:01:15.187Z,6.00
2018-03-07T08:03:43.742Z,6.10
2018-03-07T08:06:12.361Z,6.10
2018-03-07T08:08:40.949Z,6.10
2018-03-07T08:11:10.279Z,6.10
2018-03-07T08:13:38.820Z,6.10
2018-03-07T08:16:08.185Z,6.00
2018-03-07T08:18:36.799Z,6.00
2018-03-07T08:21:05.364Z,6.00
2018-03-07T08:23:33.910Z,6.10
2018-03-07T08:26:02.454Z,6.10
2018-03-07T08:28:31.074Z,6.10
2018-03-07T08:30:59.656Z,6.10
2018-03-07T08:33:28.455Z,6.10
2018-03-07T08:35:57.214Z,6.10
2018-03-07T08:38:25.834Z,6.20
2018-03-07T08:40:54.399Z,6.30
2018-03-07T08:43:23.939Z,6.60
2018-03-07T08:45:52.557Z,6.60
2018-03-07T08:48:24.401Z,6.70
2018-03-07T08:50:52.991Z,6.70
2018-03-07T08:53:21.585Z,6.70
2018-03-07T08:55:50.187Z,6.60
2018-03-07T08:58:20.817Z,6.60
2018-03-07T09:00:49.393Z,6.50
2018-03-07T09:03:17.982Z,6.50
2018-03-07T09:05:46.577Z,6.50
2018-03-07T09:08:15.144Z,6.50
2018-03-07T09:10:50.712Z,6.50
2018-03-07T09:13:19.302Z,6.40
2018-03-07T09:15:47.872Z,6.40
2018-03-07T09:18:16.416Z,6.40
2018-03-07T09:20:45.002Z,6.40
2018-03-07T09:23:13.533Z,6.40
2018-03-07T09:25:42.115Z,6.30
2018-03-07T09:28:10.686Z,6.30
2018-03-07T09:30:39.254Z,6.20
2018-03-07T09:33:07.857Z,6.20
2018-03-07T09:35:36.506Z,6.20
2018-03-07T09:38:04.772Z,6.10
2018-03-07T09:40:33.349Z,6.10
2018-03-07T09:43:02.718Z,6.10
2018-03-07T09:45:31.276Z,6.10
2018-03-07T09:47:59.834Z,6.10
2018-03-07T09:50:28.441Z,6.10
2018-03-07T09:52:57.001Z,6.10
2018-03-07T09:55:25.586Z,6.20
2018-03-07T09:57:54.169Z,6.20
2018-03-07T10:00:22.735Z,6.30
2018-03-07T10:02:51.341Z,6.40
2018-03-07T10:05:19.935Z,6.40
2018-03-07T10:07:48.526Z,6.60
2018-03-07T10:10:17.938Z,6.80
2018-03-07T10:12:47.278Z,7.00
2018-03-07T10:15:15.860Z,7.00
2018-03-07T10:17:44.456Z,7.00
2018-03-07T10:20:13.018Z,7.30
2018-03-07T10:22:43.679Z,7.20
2018-03-07T10:25:12.262Z,7.30
2018-03-07T10:27:40.880Z,7.30
2018-03-07T10:30:09.494Z,7.20
2018-03-07T10:32:38.106Z,7.30
2018-03-07T10:35:06.403Z,7.30
2018-03-07T10:37:35.046Z,7.20
2018-03-07T10:40:03.686Z,7.20
2018-03-07T10:42:32.301Z,7.20
2018-03-07T10:45:00.865Z,7.20
2018-03-07T10:47:29.476Z,7.20
2018-03-07T10:49:58.041Z,7.30
2018-03-07T10:52:26.633Z,7.40
2018-03-07T10:54:55.198Z,7.30
2018-03-07T10:57:23.822Z,7.30
2018-03-07T10:59:52.402Z,7.20
2018-03-07T11:02:20.977Z,7.30
2018-03-07T11:04:49.574Z,7.40
2018-03-07T11:07:18.153Z,7.60
2018-03-07T11:09:46.737Z,7.70
2018-03-07T11:12:16.291Z,7.80
2018-03-07T11:14:45.021Z,7.90
2018-03-07T11:17:13.577Z,8.00
2018-03-07T11:19:42.159Z,8.00
2018-03-07T11:22:10.716Z,7.90
2018-03-07T11:24:39.265Z,7.80
2018-03-07T11:27:07.869Z,7.70
2018-03-07T11:29:36.388Z,7.70
2018-03-07T11:32:05.735Z,7.60
2018-03-07T11:34:34.310Z,7.60
2018-03-07T11:37:02.902Z,7.60
2018-03-07T11:39:31.483Z,7.60
2018-03-07T11:42:00.089Z,7.50
2018-03-07T11:44:28.698Z,7.50
2018-03-07T11:46:57.306Z,7.50
2018-03-07T11:49:26.688Z,7.70
2018-03-07T11:51:55.284Z,7.70
2018-03-07T11:54:23.875Z,7.90
2018-03-07T11:56:53.245Z,8.00
2018-03-07T11:59:21.855Z,8.00
2018-03-07T12:01:50.431Z,8.00
2018-03-07T12:04:19.009Z,7.90
2018-03-07T12:06:47.585Z,7.90
2018-03-07T12:09:16.147Z,7.90
2018-03-07T12:11:44.736Z,7.90
2018-03-07T12:14:13.289Z,7.80
2018-03-07T12:16:42.629Z,7.90
2018-03-07T12:19:11.196Z,7.80
2018-03-07T12:21:39.729Z,7.90
2018-03-07T12:24:08.286Z,7.90
2018-03-07T12:26:37.643Z,8.00
2018-03-07T12:29:06.202Z,8.00
2018-03-07T12:31:34.781Z,8.00
2018-03-07T12:34:03.412Z,8.10
2018-03-07T12:36:32.722Z,8.70
2018-03-07T12:39:02.073Z,8.90
2018-03-07T12:41:30.637Z,8.90
2018-03-07T12:43:59.246Z,8.90
2018-03-07T12:46:27.845Z,8.70
2018-03-07T12:48:56.400Z,8.60
2018-03-07T12:51:25.106Z,8.50
2018-03-07T12:53:53.643Z,8.30
2018-03-07T12:56:23.000Z,8.20
2018-03-07T12:58:51.548Z,8.20
2018-03-07T13:01:20.126Z,8.10
2018-03-07T13:03:48.717Z,7.90
2018-03-07T13:06:17.269Z,7.80
2018-03-07T13:08:45.870Z,7.90
2018-03-07T13:11:16.034Z,8.30
2018-03-07T13:13:48.156Z,8.70
2018-03-07T13:16:17.500Z,11.40
2018-03-07T13:18:46.095Z,11.40
2018-03-07T13:21:14.659Z,11.50
2018-03-07T13:23:43.221Z,11.10
2018-03-07T13:26:12.574Z,9.90
2018-03-07T13:28:41.181Z,9.90
2018-03-07T13:31:09.718Z,9.50
2018-03-07T13:33:39.777Z,9.30
2018-03-07T13:36:08.349Z,9.10
2018-03-07T13:38:36.910Z,9.00
2018-03-07T13:41:05.840Z,8.90
2018-03-07T13:43:34.437Z,8.80
2018-03-07T13:46:03.039Z,8.60
2018-03-07T13:48:56.067Z,8.60
2018-03-07T13:51:24.683Z,8.50
2018-03-07T13:53:53.466Z,8.30
2018-03-07T13:56:22.181Z,8.20
2018-03-07T13:58:51.620Z,8.40
2018-03-07T14:01:20.285Z,8.40
2018-03-07T14:03:49.629Z,9.40
2018-03-07T14:06:17.947Z,9.40
2018-03-07T14:08:46.513Z,9.60
2018-03-07T14:11:15.120Z,9.60
2018-03-07T14:13:44.456Z,9.70
2018-03-07T14:16:13.039Z,9.70
2018-03-07T14:18:41.645Z,9.70
2018-03-07T14:21:10.224Z,9.60
2018-03-07T14:23:38.789Z,9.50
2018-03-07T14:26:07.353Z,9.40
2018-03-07T14:28:35.930Z,9.20
2018-03-07T14:31:04.504Z,9.00
2018-03-07T14:33:33.113Z,8.90
2018-03-07T14:36:01.680Z,8.90
2018-03-07T14:38:30.246Z,8.90
2018-03-07T14:40:59.016Z,8.90
2018-03-07T14:43:27.718Z,8.90
2018-03-07T14:45:57.112Z,8.80
2018-03-07T14:48:25.703Z,8.80
2018-03-07T14:50:54.315Z,8.90
2018-03-07T14:53:22.896Z,9.00
2018-03-07T14:55:51.464Z,9.20
2018-03-07T14:58:20.027Z,9.30
2018-03-07T15:00:48.594Z,9.40
2018-03-07T15:03:17.954Z,9.40
2018-03-07T15:05:46.507Z,9.40
2018-03-07T15:08:15.101Z,9.50
2018-03-07T15:10:43.665Z,9.40
2018-03-07T15:13:12.713Z,9.10
2018-03-07T15:15:41.315Z,9.10
2018-03-07T15:18:09.857Z,9.10
2018-03-07T15:20:38.487Z,9.00
2018-03-07T15:23:07.051Z,9.00
2018-03-07T15:25:35.702Z,9.10
2018-03-07T15:28:04.319Z,9.10
2018-03-07T15:30:32.920Z,9.00
2018-03-07T15:33:01.481Z,8.90
2018-03-07T15:35:30.078Z,8.80
2018-03-07T15:37:58.670Z,8.80
2018-03-07T15:40:27.242Z,8.80
2018-03-07T15:42:55.825Z,8.80
2018-03-07T15:45:24.314Z,8.80
2018-03-07T15:47:52.931Z,8.80
2018-03-07T15:50:21.612Z,8.80
2018-03-07T15:52:50.221Z,8.80
2018-03-07T15:55:18.793Z,8.70
2018-03-07T15:58:01.033Z,8.70
2018-03-07T16:00:30.357Z,8.60
2018-03-07T16:02:58.908Z,8.50
2018-03-07T16:05:27.526Z,8.50
2018-03-07T16:07:56.096Z,8.50
2018-03-07T16:10:25.476Z,8.40
2018-03-07T16:12:54.059Z,8.40
2018-03-07T16:15:22.654Z,8.40
2018-03-07T16:17:51.193Z,8.30
2018-03-07T16:20:19.797Z,8.30
2018-03-07T16:22:48.357Z,8.30
2018-03-07T16:25:16.908Z,8.30
2018-03-07T16:27:46.227Z,8.30
2018-03-07T16:30:15.569Z,8.20
2018-03-07T16:32:44.141Z,8.20
2018-03-07T16:35:12.712Z,8.10
2018-03-07T16:37:41.278Z,8.10
2018-03-07T16:40:10.616Z,8.10
2018-03-07T16:42:39.206Z,8.10
2018-03-07T16:45:07.851Z,8.10
2018-03-07T16:47:37.173Z,8.10
2018-03-07T16:50:05.839Z,8.00
2018-03-07T16:52:35.238Z,8.00
2018-03-07T16:55:03.862Z,8.00
2018-03-07T16:57:32.426Z,8.10
2018-03-07T17:00:01.751Z,8.00
2018-03-07T17:02:30.330Z,8.00
2018-03-07T17:04:58.919Z,8.00
2018-03-07T17:07:27.542Z,8.00
2018-03-07T17:09:56.109Z,7.90
2018-03-07T17:12:24.693Z,7.80
2018-03-07T17:14:53.278Z,7.80
2018-03-07T17:17:21.889Z,7.80
2018-03-07T17:19:50.818Z,7.80
2018-03-07T17:22:20.171Z,7.70
2018-03-07T17:24:48.758Z,7.70
2018-03-07T17:27:17.308Z,7.70
2018-03-07T17:29:46.648Z,7.50
2018-03-07T17:32:15.983Z,7.30
2018-03-07T17:34:44.561Z,7.30
2018-03-07T17:37:13.131Z,7.20
2018-03-07T17:39:42.036Z,7.10
2018-03-07T17:42:10.620Z,6.90
2018-03-07T17:44:39.526Z,6.80
2018-03-07T17:47:08.099Z,6.80
2018-03-07T17:49:36.617Z,6.70
2018-03-07T17:52:05.953Z,6.60
2018-03-07T17:54:34.468Z,6.50
2018-03-07T17:57:02.904Z,6.50
2018-03-07T17:59:31.353Z,6.50
2018-03-07T18:01:59.932Z,6.50
2018-03-07T18:04:28.495Z,6.50
2018-03-07T18:06:56.748Z,6.50
2018-03-07T18:09:25.373Z,6.50
2018-03-07T18:11:53.948Z,6.50
2018-03-07T18:14:22.625Z,6.40
2018-03-07T18:16:51.431Z,6.50
2018-03-07T18:19:20.120Z,6.50
2018-03-07T18:21:49.522Z,6.50
2018-03-07T18:24:18.182Z,6.50
2018-03-07T18:26:46.787Z,6.50
2018-03-07T18:29:15.457Z,6.50
2018-03-07T18:31:44.587Z,6.50
2018-03-07T18:34:13.253Z,6.50
2018-03-07T18:36:41.867Z,6.50
2018-03-07T18:39:10.442Z,6.50
2018-03-07T18:41:39.013Z,6.50
2018-03-07T18:44:08.307Z,6.50
2018-03-07T18:46:37.167Z,6.40
2018-03-07T18:49:05.907Z,6.40
2018-03-07T18:51:35.053Z,6.40
2018-03-07T18:54:03.847Z,6.40
2018-03-07T18:56:32.564Z,6.40
2018-03-07T18:59:01.412Z,6.40
2018-03-07T19:01:30.482Z,6.40
2018-03-07T19:03:59.466Z,6.40
2018-03-07T19:06:28.311Z,6.30
2018-03-07T19:08:58.002Z,6.20
2018-03-07T19:11:26.857Z,6.20
2018-03-07T19:13:55.675Z,6.20
2018-03-07T19:16:24.486Z,6.20
2018-03-07T19:18:53.122Z,6.20
2018-03-07T19:21:21.742Z,6.20
2018-03-07T19:23:50.376Z,6.10
2018-03-07T19:26:19.668Z,6.10
2018-03-07T19:28:50.058Z,6.00
2018-03-07T19:31:18.728Z,6.00
2018-03-07T19:33:47.789Z,6.00
2018-03-07T19:36:16.646Z,6.00
2018-03-07T19:38:45.328Z,6.00
2018-03-07T19:41:14.024Z,6.00
2018-03-07T19:43:42.632Z,6.00
2018-03-07T19:46:11.196Z,6.00
2018-03-07T19:48:39.835Z,6.00
2018-03-07T19:51:08.523Z,6.00
2018-03-07T19:53:37.099Z,6.10
2018-03-07T19:56:05.733Z,6.10
2018-03-07T19:58:34.363Z,6.10
2018-03-07T20:01:02.998Z,6.10
2018-03-07T20:03:31.593Z,6.20
2018-03-07T20:06:00.674Z,6.20
2018-03-07T20:08:29.272Z,6.10
2018-03-07T20:10:57.919Z,6.20
2018-03-07T20:13:26.482Z,6.10
2018-03-07T20:15:55.077Z,6.10
2018-03-07T20:18:24.413Z,6.10
2018-03-07T20:20:53.004Z,6.00
2018-03-07T20:23:22.407Z,6.00
2018-03-07T20:25:50.861Z,6.00
2018-03-07T20:28:20.210Z,6.00
2018-03-07T20:30:48.724Z,6.00
2018-03-07T20:33:17.338Z,6.00
2018-03-07T20:35:46.695Z,6.00
2018-03-07T20:38:38.693Z,5.90
2018-03-07T20:41:08.023Z,6.00
2018-03-07T20:43:36.608Z,6.00
2018-03-07T20:46:05.194Z,6.00
2018-03-07T20:48:33.721Z,6.00
2018-03-07T20:51:02.305Z,6.00
2018-03-07T20:53:31.636Z,6.00
2018-03-07T20:56:01.012Z,6.00
2018-03-07T20:58:31.539Z,6.00
2018-03-07T21:01:00.121Z,6.00
2018-03-07T21:03:28.739Z,6.00
2018-03-07T21:05:58.074Z,6.00
2018-03-07T21:08:26.673Z,6.00
2018-03-07T21:10:55.261Z,6.00
2018-03-07T21:13:23.858Z,6.00
2018-03-07T21:15:52.388Z,5.90
2018-03-07T21:18:21.729Z,6.00
2018-03-07T21:20:50.321Z,5.90
2018-03-07T21:23:18.907Z,5.90
2018-03-07T21:25:47.481Z,5.90
2018-03-07T21:28:16.045Z,5.90
2018-03-07T21:30:44.629Z,5.90
2018-03-07T21:33:13.966Z,5.90
2018-03-07T21:35:42.541Z,5.90
2018-03-07T21:38:11.150Z,5.90
2018-03-07T21:40:39.790Z,5.90
2018-03-07T21:43:08.552Z,5.90
2018-03-07T21:45:37.148Z,5.90
2018-03-07T21:48:05.808Z,5.80
2018-03-07T21:50:34.388Z,5.90
2018-03-07T21:53:02.888Z,5.80
2018-03-07T21:55:31.485Z,5.80
2018-03-07T21:58:00.096Z,5.80
2018-03-07T22:00:30.752Z,5.70
2018-03-07T22:02:59.344Z,5.80
2018-03-07T22:05:27.925Z,5.80
2018-03-07T22:07:56.449Z,5.80
2018-03-07T22:10:24.983Z,5.80
2018-03-07T22:12:53.539Z,5.80
2018-03-07T22:15:22.155Z,5.80
2018-03-07T22:17:50.740Z,5.80
2018-03-07T22:20:19.297Z,5.70
2018-03-07T22:22:47.880Z,5.70
2018-03-07T22:25:17.431Z,5.70
2018-03-07T22:27:46.038Z,5.70
2018-03-07T22:30:15.029Z,5.70
2018-03-07T22:32:46.920Z,5.60
2018-03-07T22:35:16.175Z,5.60
2018-03-07T22:37:44.774Z,5.60
2018-03-07T22:40:13.332Z,5.50
2018-03-07T22:42:42.644Z,5.50
2018-03-07T22:45:11.216Z,5.50
2018-03-07T22:47:40.582Z,5.40
2018-03-07T22:50:09.147Z,5.40
2018-03-07T22:52:37.767Z,5.40
2018-03-07T22:55:06.337Z,5.40
2018-03-07T22:57:35.271Z,5.30
2018-03-07T23:00:03.854Z,5.30
2018-03-07T23:02:33.219Z,5.30
2018-03-07T23:05:01.801Z,5.30
2018-03-07T23:07:32.266Z,5.30
2018-03-07T23:10:00.868Z,5.30
2018-03-07T23:12:30.209Z,5.30
2018-03-07T23:14:58.821Z,5.30
2018-03-07T23:17:27.655Z,5.30
2018-03-07T23:19:56.288Z,5.40
2018-03-07T23:22:24.892Z,5.40
2018-03-07T23:24:53.485Z,5.40
2018-03-07T23:27:26.674Z,5.30
2018-03-07T23:29:55.283Z,5.30
2018-03-07T23:32:23.876Z,5.30
2018-03-07T23:34:54.192Z,5.30
2018-03-07T23:37:23.531Z,5.30
2018-03-07T23:39:52.144Z,5.30
2018-03-07T23:42:20.738Z,5.30
2018-03-07T23:44:49.171Z,5.30
2018-03-07T23:47:17.726Z,5.30
2018-03-07T23:49:46.320Z,5.30
2018-03-07T23:52:14.947Z,5.30
2018-03-07T23:54:51.066Z,5.30
2018-03-07T23:57:19.650Z,5.30
2018-03-07T23:59:48.263Z,5.30
